createdAt,value
2023-04-03T00:01:31.802Z,102694.41
2023-04-03T00:05:34.806Z,102692.69
2023-04-03T00:09:37.537Z,102700.25
2023-04-03T00:13:41.866Z,102700.69
2023-04-03T00:17:44.658Z,102701.13
2023-04-03T00:21:47.491Z,102698.59
2023-04-03T00:25:50.329Z,102704.13
2023-04-03T00:29:55.684Z,102714.38
2023-04-03T00:33:58.495Z,102712.97
2023-04-03T00:38:01.235Z,102708.31
2023-04-03T00:42:04.015Z,102714.16
2023-04-03T00:46:08.080Z,102717.53
2023-04-03T00:50:11.927Z,102712.88
2023-04-03T00:54:14.874Z,102708.94
2023-04-03T00:58:19.692Z,102722.13
2023-04-03T01:02:24.141Z,102716.16
2023-04-03T01:06:36.342Z,102717.16
2023-04-03T01:10:44.450Z,102724.41
2023-04-03T01:14:48.258Z,102719.75
2023-04-03T01:18:52.602Z,102719.75
2023-04-03T01:23:01.069Z,102725.56
2023-04-03T01:27:05.892Z,102718.66
2023-04-03T01:31:17.362Z,102743.00
2023-04-03T01:35:23.905Z,102744.00
2023-04-03T01:39:28.586Z,102748.13
2023-04-03T01:43:32.071Z,102747.56
2023-04-03T01:47:34.917Z,102750.97
2023-04-03T01:51:39.200Z,102741.63
2023-04-03T01:55:41.959Z,102742.34
2023-04-03T01:59:44.911Z,102751.00
2023-04-03T02:03:47.823Z,102752.69
2023-04-03T02:07:52.018Z,102755.84
2023-04-03T02:11:55.085Z,102755.09
2023-04-03T02:15:57.874Z,102756.41
2023-04-03T02:20:00.702Z,102761.34
2023-04-03T02:24:04.910Z,102766.16
2023-04-03T02:28:08.193Z,102768.28
2023-04-03T02:32:10.902Z,102775.34
2023-04-03T02:36:14.609Z,102767.88
2023-04-03T02:40:21.858Z,102768.13
2023-04-03T02:44:25.385Z,102773.06
2023-04-03T02:48:29.412Z,102766.00
2023-04-03T02:52:32.806Z,102763.31
2023-04-03T02:56:37.033Z,102773.34
2023-04-03T03:00:40.554Z,102776.59
2023-04-03T03:04:43.705Z,102777.13
2023-04-03T03:08:46.537Z,102772.47
2023-04-03T03:12:51.745Z,102765.53
2023-04-03T03:16:54.423Z,102772.91
2023-04-03T03:20:58.996Z,102770.22
2023-04-03T03:25:02.081Z,102779.81
2023-04-03T03:29:06.205Z,102774.59
2023-04-03T03:33:09.183Z,102768.06
2023-04-03T03:37:11.866Z,102776.69
2023-04-03T03:41:14.643Z,102773.16
2023-04-03T03:45:21.277Z,102777.53
2023-04-03T03:49:24.421Z,102781.47
2023-04-03T03:53:27.579Z,102785.44
2023-04-03T03:57:34.390Z,102784.38
2023-04-03T04:01:38.690Z,102780.44
2023-04-03T04:05:41.567Z,102791.41
2023-04-03T04:09:44.546Z,102797.06
2023-04-03T04:13:47.406Z,102798.84
2023-04-03T04:17:54.296Z,102804.03
2023-04-03T04:21:57.898Z,102806.97
2023-04-03T04:26:00.835Z,102813.00
2023-04-03T04:30:08.047Z,102815.50
2023-04-03T04:34:13.885Z,102831.03
2023-04-03T04:38:16.758Z,102826.03
2023-04-03T04:42:19.664Z,102831.94
2023-04-03T04:46:25.171Z,102835.75
2023-04-03T04:50:34.308Z,102835.75
2023-04-03T04:54:37.300Z,102846.56
2023-04-03T04:58:40.351Z,102853.72
2023-04-03T05:02:44.304Z,102856.03
2023-04-03T05:06:49.263Z,102857.28
2023-04-03T05:10:57.094Z,102864.13
2023-04-03T05:15:02.485Z,102862.81
2023-04-03T05:19:07.216Z,102855.28
2023-04-03T05:23:12.751Z,102865.91
2023-04-03T05:27:17.796Z,102866.53
2023-04-03T05:31:25.319Z,102870.75
2023-04-03T05:35:28.427Z,102863.34
2023-04-03T05:39:36.138Z,102875.00
2023-04-03T05:43:41.513Z,102876.13
2023-04-03T05:47:46.190Z,102877.59
2023-04-03T05:51:49.042Z,102891.13
2023-04-03T05:56:01.997Z,102897.22
2023-04-03T06:00:10.480Z,102896.97
2023-04-03T06:04:17.100Z,102906.22
2023-04-03T06:08:20.254Z,102893.66
2023-04-03T06:12:24.770Z,102902.06
2023-04-03T06:16:27.905Z,102901.78
2023-04-03T06:20:30.582Z,102913.50
2023-04-03T06:24:33.653Z,102912.38
2023-04-03T06:28:38.431Z,102911.28
2023-04-03T06:32:41.456Z,102910.69
2023-04-03T06:36:45.898Z,102916.38
2023-04-03T06:40:49.066Z,102919.53
2023-04-03T06:44:53.167Z,102918.06
2023-04-03T06:48:56.030Z,102913.75
2023-04-03T06:52:58.942Z,102923.72
2023-04-03T06:57:01.753Z,102923.66
2023-04-03T07:01:06.434Z,102936.88
2023-04-03T07:05:09.945Z,102930.47
2023-04-03T07:09:12.785Z,102937.41
2023-04-03T07:13:15.620Z,102936.38
2023-04-03T07:17:19.696Z,102932.63
2023-04-03T07:21:22.421Z,102939.09
2023-04-03T07:25:25.260Z,102943.03
2023-04-03T07:29:28.385Z,102959.88
2023-04-03T07:33:33.064Z,102953.59
2023-04-03T07:37:35.775Z,102957.13
2023-04-03T07:41:38.541Z,102965.66
2023-04-03T07:45:41.369Z,102964.97
2023-04-03T07:49:45.682Z,102957.03
2023-04-03T07:53:49.473Z,102953.41
2023-04-03T07:57:52.333Z,102952.72
2023-04-03T08:01:55.074Z,102952.53
2023-04-03T08:06:06.060Z,102954.53
2023-04-03T08:10:10.599Z,102960.84
2023-04-03T08:14:17.408Z,102958.88
2023-04-03T08:18:22.698Z,102947.25
2023-04-03T08:22:27.276Z,102953.78
2023-04-03T08:26:30.085Z,102963.13
2023-04-03T08:30:32.856Z,102965.00
2023-04-03T08:34:37.794Z,102968.03
2023-04-03T08:38:41.909Z,102961.81
2023-04-03T08:42:56.113Z,102970.75
2023-04-03T08:47:13.515Z,102965.19
2023-04-03T08:51:19.618Z,102954.31
2023-04-03T08:55:29.081Z,102954.06
2023-04-03T08:59:35.935Z,102954.75
2023-04-03T09:03:41.765Z,102952.34
2023-04-03T09:07:49.969Z,102963.41
2023-04-03T09:12:02.590Z,102956.03
2023-04-03T09:16:17.354Z,102945.00
2023-04-03T09:20:27.384Z,102962.06
2023-04-03T09:24:31.044Z,102950.25
2023-04-03T09:28:43.118Z,102942.16
2023-04-03T09:32:51.473Z,102950.63
2023-04-03T09:36:56.582Z,102949.78
2023-04-03T09:41:07.222Z,102952.88
2023-04-03T09:45:25.636Z,102943.84
2023-04-03T09:49:29.850Z,102945.19
2023-04-03T09:53:37.451Z,102952.84
2023-04-03T09:57:40.548Z,102941.88
2023-04-03T10:01:59.958Z,102939.22
2023-04-03T10:06:04.371Z,102923.38
2023-04-03T10:10:21.041Z,102923.59
2023-04-03T10:14:24.148Z,102928.31
2023-04-03T10:18:40.596Z,102931.69
2023-04-03T10:22:51.045Z,102924.88
2023-04-03T10:27:00.154Z,102921.22
2023-04-03T10:31:08.681Z,102922.13
2023-04-03T10:35:21.280Z,102915.91
2023-04-03T10:39:33.628Z,102914.03
2023-04-03T10:43:44.438Z,102908.00
2023-04-03T10:47:58.126Z,102902.16
2023-04-03T10:52:09.878Z,102896.38
2023-04-03T10:56:18.294Z,102897.59
2023-04-03T11:00:24.808Z,102891.88
2023-04-03T11:04:31.080Z,102888.03
2023-04-03T11:08:40.421Z,102877.19
2023-04-03T11:12:47.916Z,102874.66
2023-04-03T11:17:01.547Z,102872.03
2023-04-03T11:21:10.280Z,102865.09
2023-04-03T11:25:23.814Z,102863.25
2023-04-03T11:29:35.503Z,102873.00
2023-04-03T11:33:50.377Z,102856.25
2023-04-03T11:37:54.727Z,102854.19
2023-04-03T11:42:17.056Z,102852.44
2023-04-03T11:46:20.645Z,102842.63
2023-04-03T11:50:45.016Z,102825.59
2023-04-03T11:54:50.645Z,102829.78
2023-04-03T11:59:28.519Z,102833.59
2023-04-03T12:03:56.877Z,102818.44
2023-04-03T12:08:18.190Z,102818.25
2023-04-03T12:12:32.301Z,102822.97
2023-04-03T12:16:46.937Z,102822.22
2023-04-03T12:20:57.875Z,102828.22
2023-04-03T12:25:39.691Z,102818.56
2023-04-03T12:29:49.286Z,102815.78
2023-04-03T12:34:19.786Z,102826.94
2023-04-03T12:38:58.695Z,102806.34
2023-04-03T12:43:18.612Z,102806.44
2023-04-03T12:47:29.253Z,102804.75
2023-04-03T12:51:39.042Z,102801.38
2023-04-03T12:55:41.881Z,102795.78
2023-04-03T12:59:47.467Z,102801.13
2023-04-03T13:03:54.166Z,102798.84
2023-04-03T13:08:02.680Z,102775.84
2023-04-03T13:12:13.607Z,102779.63
2023-04-03T13:16:19.020Z,102779.59
2023-04-03T13:20:25.663Z,102769.28
2023-04-03T13:24:31.588Z,102767.44
2023-04-03T13:28:36.167Z,102766.09
2023-04-03T13:32:38.863Z,102761.75
2023-04-03T13:36:43.068Z,102763.69
2023-04-03T13:40:52.411Z,102755.91
2023-04-03T13:45:12.815Z,102754.44
2023-04-03T13:49:22.833Z,102739.50
2023-04-03T13:53:26.250Z,102750.00
2023-04-03T13:57:30.725Z,102746.16
2023-04-03T14:01:46.777Z,102737.06
2023-04-03T14:05:49.616Z,102741.69
2023-04-03T14:09:53.077Z,102730.25
2023-04-03T14:13:59.698Z,102734.22
2023-04-03T14:18:04.436Z,102730.91
2023-04-03T14:22:15.847Z,102733.47
2023-04-03T14:26:21.419Z,102717.19
2023-04-03T14:30:28.100Z,102731.53
2023-04-03T14:34:31.153Z,102729.97
2023-04-03T14:38:33.968Z,102729.97
2023-04-03T14:42:38.989Z,102717.25
2023-04-03T14:46:56.261Z,102724.94
2023-04-03T14:51:05.573Z,102713.16
2023-04-03T14:55:09.988Z,102703.88
2023-04-03T14:59:15.485Z,102705.88
2023-04-03T15:03:22.168Z,102701.97
2023-04-03T15:07:27.406Z,102700.72
2023-04-03T15:11:30.210Z,102690.13
2023-04-03T15:15:38.007Z,102700.41
2023-04-03T15:19:42.731Z,102693.28
2023-04-03T15:23:45.448Z,102701.16
2023-04-03T15:27:48.177Z,102693.13
2023-04-03T15:31:54.360Z,102696.75
2023-04-03T15:36:06.744Z,102697.66
2023-04-03T15:40:12.139Z,102702.06
2023-04-03T15:44:14.988Z,102692.88
2023-04-03T15:48:17.845Z,102691.75
2023-04-03T15:52:23.216Z,102686.13
2023-04-03T15:56:26.074Z,102695.03
2023-04-03T16:00:29.190Z,102685.41
2023-04-03T16:04:32.378Z,102688.59
2023-04-03T16:08:37.569Z,102703.47
2023-04-03T16:12:41.853Z,102706.09
2023-04-03T16:16:44.616Z,102689.41
2023-04-03T16:20:47.405Z,102689.16
2023-04-03T16:24:51.783Z,102684.84
2023-04-03T16:28:54.724Z,102683.88
2023-04-03T16:32:58.660Z,102670.59
2023-04-03T16:37:06.865Z,102672.84
2023-04-03T16:41:15.982Z,102669.56
2023-04-03T16:45:18.732Z,102673.41
2023-04-03T16:49:21.555Z,102669.94
2023-04-03T16:53:25.690Z,102676.25
2023-04-03T16:57:29.853Z,102685.69
2023-04-03T17:01:32.812Z,102678.00
2023-04-03T17:05:36.187Z,102681.88
2023-04-03T17:09:39.038Z,102678.22
2023-04-03T17:13:43.163Z,102685.00
2023-04-03T17:17:46.054Z,102681.13
2023-04-03T17:21:48.906Z,102680.47
2023-04-03T17:25:51.705Z,102674.75
2023-04-03T17:29:55.810Z,102679.22
2023-04-03T17:34:01.593Z,102677.22
2023-04-03T17:38:04.769Z,102681.72
2023-04-03T17:42:07.690Z,102671.78
2023-04-03T17:46:12.625Z,102681.59
2023-04-03T17:50:16.233Z,102680.06
2023-04-03T17:54:18.991Z,102676.56
2023-04-03T17:58:21.744Z,102682.50
2023-04-03T18:02:26.177Z,102680.38
2023-04-03T18:06:31.753Z,102670.09
2023-04-03T18:10:37.365Z,102674.16
2023-04-03T18:14:41.942Z,102673.69
2023-04-03T18:18:46.124Z,102674.88
2023-04-03T18:22:49.360Z,102677.59
2023-04-03T18:26:56.634Z,102681.34
2023-04-03T18:31:00.013Z,102688.28
2023-04-03T18:35:04.657Z,102685.44
2023-04-03T18:39:07.490Z,102681.88
2023-04-03T18:43:10.769Z,102693.38
2023-04-03T18:47:13.881Z,102688.47
2023-04-03T18:51:17.985Z,102686.44
2023-04-03T18:55:20.857Z,102688.69
2023-04-03T18:59:23.604Z,102684.25
2023-04-03T19:03:26.656Z,102693.06
2023-04-03T19:07:31.093Z,102698.28
2023-04-03T19:11:35.020Z,102697.09
2023-04-03T19:15:38.045Z,102691.19
2023-04-03T19:19:40.974Z,102694.22
2023-04-03T19:23:45.689Z,102702.13
2023-04-03T19:27:49.031Z,102700.09
2023-04-03T19:31:52.558Z,102690.47
2023-04-03T19:35:55.545Z,102694.00
2023-04-03T19:39:59.819Z,102702.22
2023-04-03T19:44:02.671Z,102692.25
2023-04-03T19:48:05.901Z,102689.03
2023-04-03T19:52:08.645Z,102682.72
2023-04-03T19:56:12.848Z,102692.34
2023-04-03T20:00:16.433Z,102687.59
2023-04-03T20:04:19.355Z,102691.25
2023-04-03T20:08:22.956Z,102686.00
2023-04-03T20:12:27.467Z,102693.00
2023-04-03T20:16:30.721Z,102684.72
2023-04-03T20:20:34.116Z,102686.34
2023-04-03T20:24:36.773Z,102687.16
2023-04-03T20:28:41.125Z,102689.47
2023-04-03T20:32:44.059Z,102687.41
2023-04-03T20:36:49.625Z,102683.50
2023-04-03T20:40:52.772Z,102686.34
2023-04-03T20:44:58.358Z,102685.81
2023-04-03T20:49:01.185Z,102681.38
2023-04-03T20:53:03.976Z,102689.78
2023-04-03T20:57:06.910Z,102689.41
2023-04-03T21:01:19.703Z,102688.00
2023-04-03T21:05:26.278Z,102692.03
2023-04-03T21:10:07.387Z,102678.16
2023-04-03T21:14:48.421Z,102684.88
2023-04-03T21:19:10.376Z,102678.41
2023-04-03T21:23:13.825Z,102677.88
2023-04-03T21:27:16.628Z,102672.25
2023-04-03T21:31:20.314Z,102664.63
2023-04-03T21:35:24.458Z,102662.56
2023-04-03T21:39:27.261Z,102656.78
2023-04-03T21:43:32.196Z,102667.19
2023-04-03T21:47:35.534Z,102676.00
2023-04-03T21:51:39.853Z,102673.94
2023-04-03T21:55:42.954Z,102677.25
2023-04-03T21:59:46.417Z,102680.53
2023-04-03T22:03:49.258Z,102681.66
2023-04-03T22:07:53.948Z,102679.06
2023-04-03T22:11:57.087Z,102672.56
2023-04-03T22:16:01.604Z,102665.78
2023-04-03T22:20:04.480Z,102667.63
2023-04-03T22:24:09.406Z,102660.88
2023-04-03T22:28:13.868Z,102663.00
2023-04-03T22:32:16.663Z,102661.63
2023-04-03T22:36:19.355Z,102661.22
2023-04-03T22:40:23.397Z,102661.66
2023-04-03T22:44:29.654Z,102662.81
2023-04-03T22:48:35.341Z,102666.94
2023-04-03T22:52:38.068Z,102667.22
2023-04-03T22:56:42.090Z,102662.16
2023-04-03T23:00:44.831Z,102658.03
2023-04-03T23:04:47.957Z,102660.19
2023-04-03T23:08:51.046Z,102661.47
2023-04-03T23:12:55.030Z,102662.91
2023-04-03T23:17:05.412Z,102668.03
2023-04-03T23:21:09.314Z,102668.47
2023-04-03T23:25:12.301Z,102685.03
2023-04-03T23:29:16.379Z,102670.06
2023-04-03T23:33:19.117Z,102683.09
2023-04-03T23:37:21.871Z,102687.19
2023-04-03T23:41:24.983Z,102687.63
2023-04-03T23:45:29.073Z,102693.28
2023-04-03T23:49:32.138Z,102683.25
2023-04-03T23:53:35.819Z,102695.28
2023-04-03T23:57:38.589Z,102687.66
